createdAt,value
2023-04-09T00:01:07.044Z,11.73
2023-04-09T00:03:35.005Z,10.50
2023-04-09T00:06:02.635Z,12.07
2023-04-09T00:08:29.965Z,12.57
2023-04-09T00:10:58.849Z,12.27
2023-04-09T00:13:38.393Z,11.33
2023-04-09T00:16:07.897Z,12.00
2023-04-09T00:18:35.734Z,12.63
2023-04-09T00:21:02.978Z,11.53
2023-04-09T00:23:30.729Z,12.60
2023-04-09T00:25:57.956Z,13.63
2023-04-09T00:28:25.554Z,12.90
2023-04-09T00:30:52.835Z,12.13
2023-04-09T00:33:20.057Z,13.20
2023-04-09T00:35:47.285Z,13.30
2023-04-09T00:38:14.515Z,13.47
2023-04-09T00:40:41.743Z,14.90
2023-04-09T00:43:08.942Z,14.47
2023-04-09T00:45:36.608Z,14.50
2023-04-09T00:48:04.087Z,14.20
2023-04-09T00:50:31.305Z,13.80
2023-04-09T00:52:58.586Z,15.10
2023-04-09T00:55:26.027Z,14.33
2023-04-09T00:57:53.268Z,15.97
2023-04-09T01:00:20.730Z,13.70
2023-04-09T01:02:49.348Z,16.17
2023-04-09T01:05:16.745Z,16.67
2023-04-09T01:07:59.113Z,15.60
2023-04-09T01:10:36.587Z,16.30
2023-04-09T01:13:13.250Z,15.03
2023-04-09T01:15:51.883Z,14.87
2023-04-09T01:18:44.305Z,16.67
2023-04-09T01:21:18.016Z,15.30
2023-04-09T01:24:17.143Z,16.57
2023-04-09T01:27:07.325Z,15.00
2023-04-09T01:29:39.402Z,13.70
2023-04-09T01:32:07.927Z,15.60
2023-04-09T01:34:36.284Z,14.60
2023-04-09T01:37:04.115Z,16.07
2023-04-09T01:39:32.445Z,14.70
2023-04-09T01:42:00.998Z,15.77
2023-04-09T01:44:29.202Z,18.27
2023-04-09T01:46:58.251Z,17.50
2023-04-09T01:49:25.629Z,22.10
2023-04-09T01:51:52.914Z,22.77
2023-04-09T01:54:20.103Z,22.23
2023-04-09T01:56:48.579Z,19.00
2023-04-09T01:59:15.956Z,18.30
2023-04-09T02:02:04.840Z,17.90
2023-04-09T02:04:40.588Z,16.93
2023-04-09T02:07:23.304Z,19.83
2023-04-09T02:09:53.380Z,15.37
2023-04-09T02:12:22.315Z,17.30
2023-04-09T02:14:52.541Z,14.50
2023-04-09T02:17:20.336Z,16.47
2023-04-09T02:19:48.373Z,14.30
2023-04-09T02:22:16.893Z,14.10
2023-04-09T02:24:44.532Z,13.00
2023-04-09T02:27:11.824Z,13.90
2023-04-09T02:29:40.839Z,13.53
2023-04-09T02:32:08.536Z,13.93
2023-04-09T02:34:35.964Z,13.90
2023-04-09T02:37:03.352Z,15.37
2023-04-09T02:39:30.640Z,15.27
2023-04-09T02:41:58.038Z,15.17
2023-04-09T02:44:25.644Z,16.70
2023-04-09T02:46:52.933Z,18.17
2023-04-09T02:49:20.462Z,17.07
2023-04-09T02:51:47.730Z,18.30
2023-04-09T02:54:15.067Z,16.73
2023-04-09T02:56:42.235Z,17.63
2023-04-09T02:59:09.442Z,16.60
2023-04-09T03:01:36.829Z,16.93
2023-04-09T03:04:04.296Z,17.73
2023-04-09T03:06:31.703Z,17.43
2023-04-09T03:08:58.874Z,16.70
2023-04-09T03:11:26.118Z,16.67
2023-04-09T03:13:53.335Z,16.77
2023-04-09T03:16:20.614Z,17.23
2023-04-09T03:18:47.980Z,16.90
2023-04-09T03:21:16.256Z,15.97
2023-04-09T03:23:43.462Z,17.40
2023-04-09T03:26:10.757Z,18.33
2023-04-09T03:28:38.051Z,17.50
2023-04-09T03:31:05.399Z,15.60
2023-04-09T03:33:32.643Z,18.43
2023-04-09T03:36:00.064Z,17.90
2023-04-09T03:38:27.287Z,18.10
2023-04-09T03:40:56.077Z,16.73
2023-04-09T03:43:23.308Z,16.70
2023-04-09T03:45:50.590Z,15.40
2023-04-09T03:48:17.803Z,16.80
2023-04-09T03:50:45.018Z,18.60
2023-04-09T03:53:12.183Z,16.43
2023-04-09T03:55:39.416Z,17.77
2023-04-09T03:58:06.598Z,15.43
2023-04-09T04:00:33.827Z,16.27
2023-04-09T04:03:01.232Z,16.67
2023-04-09T04:05:28.652Z,17.43
2023-04-09T04:07:56.039Z,17.57
2023-04-09T04:10:23.220Z,17.07
2023-04-09T04:12:50.545Z,15.47
2023-04-09T04:15:17.872Z,17.13
2023-04-09T04:17:45.166Z,17.10
2023-04-09T04:20:12.514Z,18.30
2023-04-09T04:22:39.771Z,18.43
2023-04-09T04:25:07.382Z,19.17
2023-04-09T04:27:34.544Z,18.40
2023-04-09T04:30:02.406Z,15.20
2023-04-09T04:32:29.792Z,15.03
2023-04-09T04:34:57.021Z,15.67
2023-04-09T04:37:24.333Z,15.70
2023-04-09T04:39:51.607Z,16.10
2023-04-09T04:42:18.860Z,15.93
2023-04-09T04:44:46.041Z,15.30
2023-04-09T04:47:13.251Z,16.53
2023-04-09T04:49:40.443Z,19.17
2023-04-09T04:52:07.868Z,18.50
2023-04-09T04:54:35.369Z,18.40
2023-04-09T04:57:03.135Z,17.93
2023-04-09T04:59:31.412Z,17.97
2023-04-09T05:01:58.738Z,19.13
2023-04-09T05:04:26.025Z,19.07
2023-04-09T05:06:53.248Z,19.97
2023-04-09T05:09:22.357Z,18.43
2023-04-09T05:11:49.800Z,19.03
2023-04-09T05:14:17.302Z,19.97
2023-04-09T05:16:44.526Z,18.00
2023-04-09T05:19:11.745Z,18.20
2023-04-09T05:21:39.214Z,20.03
2023-04-09T05:24:06.804Z,20.13
2023-04-09T05:26:34.043Z,19.57
2023-04-09T05:29:01.550Z,17.43
2023-04-09T05:31:28.803Z,19.87
2023-04-09T05:33:56.019Z,19.87
2023-04-09T05:36:23.311Z,19.50
2023-04-09T05:38:50.906Z,18.70
2023-04-09T05:41:18.327Z,19.40
2023-04-09T05:43:45.637Z,19.60
2023-04-09T05:46:12.846Z,19.57
2023-04-09T05:48:40.242Z,20.20
2023-04-09T05:51:07.552Z,17.70
2023-04-09T05:53:34.742Z,19.80
2023-04-09T05:56:01.932Z,19.30
2023-04-09T05:58:29.682Z,17.67
2023-04-09T06:00:56.848Z,17.70
2023-04-09T06:03:24.217Z,16.67
2023-04-09T06:05:51.569Z,17.03
2023-04-09T06:08:18.737Z,18.90
2023-04-09T06:10:46.464Z,17.23
2023-04-09T06:13:13.693Z,16.60
2023-04-09T06:15:41.231Z,18.20
2023-04-09T06:18:08.768Z,14.97
2023-04-09T06:20:36.201Z,15.30
2023-04-09T06:23:03.485Z,16.23
2023-04-09T06:25:30.988Z,17.83
2023-04-09T06:27:58.254Z,16.00
2023-04-09T06:30:25.942Z,16.13
2023-04-09T06:32:54.802Z,18.10
2023-04-09T06:35:23.151Z,16.70
2023-04-09T06:37:50.483Z,15.40
2023-04-09T06:40:18.467Z,14.80
2023-04-09T06:42:47.066Z,14.97
2023-04-09T06:45:14.400Z,13.77
2023-04-09T06:47:43.002Z,13.10
2023-04-09T06:50:10.796Z,12.80
2023-04-09T06:52:38.450Z,14.60
2023-04-09T06:55:06.616Z,13.60
2023-04-09T06:57:33.846Z,12.07
2023-04-09T07:00:01.107Z,12.67
2023-04-09T07:02:28.564Z,13.37
2023-04-09T07:04:56.169Z,12.23
2023-04-09T07:07:25.363Z,14.00
2023-04-09T07:09:53.906Z,13.27
2023-04-09T07:12:28.254Z,12.60
2023-04-09T07:15:03.635Z,12.90
2023-04-09T07:17:34.899Z,12.67
2023-04-09T07:20:02.290Z,13.10
2023-04-09T07:22:30.946Z,12.60
2023-04-09T07:24:58.177Z,12.30
2023-04-09T07:27:27.685Z,12.97
2023-04-09T07:29:59.152Z,13.60
2023-04-09T07:32:30.085Z,13.47
2023-04-09T07:34:59.372Z,13.80
2023-04-09T07:37:27.202Z,13.40
2023-04-09T07:39:54.548Z,12.00
2023-04-09T07:42:21.951Z,13.60
2023-04-09T07:44:49.484Z,13.87
2023-04-09T07:47:16.782Z,13.80
2023-04-09T07:49:43.978Z,13.10
2023-04-09T07:52:11.652Z,11.93
2023-04-09T07:54:38.869Z,13.13
2023-04-09T07:57:06.811Z,13.27
2023-04-09T07:59:36.860Z,13.10
2023-04-09T08:02:04.248Z,13.50
2023-04-09T08:04:32.046Z,13.60
2023-04-09T08:06:59.354Z,13.20
2023-04-09T08:09:26.640Z,17.30
2023-04-09T08:11:53.836Z,18.20
2023-04-09T08:14:21.433Z,11.53
2023-04-09T08:16:50.401Z,11.73
2023-04-09T08:19:19.137Z,10.63
2023-04-09T08:21:48.979Z,10.17
2023-04-09T08:24:16.478Z,11.63
2023-04-09T08:26:44.034Z,10.80
2023-04-09T08:29:13.607Z,10.43
2023-04-09T08:31:41.416Z,10.50
2023-04-09T08:34:08.810Z,10.23
2023-04-09T08:36:36.342Z,9.57
2023-04-09T08:39:04.097Z,8.57
2023-04-09T08:41:31.581Z,9.17
2023-04-09T08:44:00.011Z,7.17
2023-04-09T08:46:28.163Z,7.27
2023-04-09T08:48:56.204Z,7.07
2023-04-09T08:51:24.651Z,8.93
2023-04-09T08:54:04.451Z,9.80
2023-04-09T08:56:32.532Z,8.87
2023-04-09T08:58:59.805Z,8.27
2023-04-09T09:01:29.685Z,8.63
2023-04-09T09:04:03.891Z,8.83
2023-04-09T09:06:33.789Z,10.50
2023-04-09T09:09:08.229Z,8.37
2023-04-09T09:11:43.463Z,9.60
2023-04-09T09:14:11.731Z,9.73
2023-04-09T09:16:42.934Z,9.60
2023-04-09T09:19:28.632Z,9.43
2023-04-09T09:22:00.234Z,9.30
2023-04-09T09:24:28.112Z,8.00
2023-04-09T09:26:55.867Z,8.80
2023-04-09T09:29:23.210Z,7.90
2023-04-09T09:31:52.208Z,8.30
2023-04-09T09:34:21.652Z,7.57
2023-04-09T09:36:49.428Z,7.17
2023-04-09T09:39:18.049Z,7.53
2023-04-09T09:41:47.331Z,7.40
2023-04-09T09:44:32.456Z,6.97
2023-04-09T09:47:00.704Z,6.20
2023-04-09T09:49:27.927Z,6.80
2023-04-09T09:51:59.643Z,5.97
2023-04-09T09:54:28.700Z,6.30
2023-04-09T09:57:01.029Z,6.47
2023-04-09T09:59:35.290Z,6.50
2023-04-09T10:02:06.252Z,6.90
2023-04-09T10:04:36.735Z,6.00
2023-04-09T10:07:07.433Z,5.47
2023-04-09T10:09:37.840Z,6.70
2023-04-09T10:12:09.705Z,7.23
2023-04-09T10:14:38.498Z,6.20
2023-04-09T10:17:06.683Z,6.63
2023-04-09T10:19:40.448Z,6.90
2023-04-09T10:22:11.759Z,6.80
2023-04-09T10:24:39.580Z,5.70
2023-04-09T10:27:14.221Z,3.97
2023-04-09T10:29:48.068Z,4.37
2023-04-09T10:32:23.743Z,3.50
2023-04-09T10:34:52.159Z,2.83
2023-04-09T10:37:24.518Z,3.60
2023-04-09T10:39:52.793Z,3.23
2023-04-09T10:42:27.367Z,3.30
2023-04-09T10:45:04.903Z,3.20
2023-04-09T10:47:34.311Z,2.80
2023-04-09T10:50:20.494Z,2.13
2023-04-09T10:52:52.350Z,3.03
2023-04-09T10:55:38.938Z,3.17
2023-04-09T10:58:10.473Z,4.03
2023-04-09T11:00:44.739Z,3.47
2023-04-09T11:03:29.141Z,3.13
2023-04-09T11:06:03.781Z,3.37
2023-04-09T11:08:35.040Z,3.27
2023-04-09T11:11:03.646Z,2.70
2023-04-09T11:13:32.389Z,3.30
2023-04-09T11:16:01.477Z,3.60
2023-04-09T11:18:30.525Z,3.03
2023-04-09T11:21:00.044Z,3.37
2023-04-09T11:23:28.166Z,2.73
2023-04-09T11:25:56.544Z,3.90
2023-04-09T11:28:24.539Z,2.80
2023-04-09T11:30:52.443Z,2.40
2023-04-09T11:33:20.597Z,3.50
2023-04-09T11:35:48.509Z,2.60
2023-04-09T11:38:15.926Z,2.43
2023-04-09T11:40:48.873Z,2.53
2023-04-09T11:43:17.192Z,2.50
2023-04-09T11:45:44.915Z,2.10
2023-04-09T11:48:13.093Z,2.20
2023-04-09T11:50:40.731Z,2.93
2023-04-09T11:53:21.974Z,1.77
2023-04-09T11:55:53.416Z,1.80
2023-04-09T11:58:26.320Z,1.90
2023-04-09T12:00:58.921Z,2.30
2023-04-09T12:03:31.220Z,2.17
2023-04-09T12:06:01.711Z,1.93
2023-04-09T12:08:29.056Z,1.90
2023-04-09T12:10:56.440Z,2.10
2023-04-09T12:13:33.576Z,2.00
2023-04-09T12:16:02.452Z,1.67
2023-04-09T12:18:29.721Z,2.37
2023-04-09T12:20:57.019Z,2.30
2023-04-09T12:23:24.236Z,1.77
2023-04-09T12:25:51.405Z,2.30
2023-04-09T12:28:19.074Z,2.07
2023-04-09T12:30:47.054Z,2.70
2023-04-09T12:33:14.344Z,2.20
2023-04-09T12:35:41.981Z,2.30
2023-04-09T12:38:09.362Z,2.50
2023-04-09T12:40:37.124Z,1.73
2023-04-09T12:43:05.119Z,2.40
2023-04-09T12:45:32.972Z,1.97
2023-04-09T12:48:00.225Z,2.10
2023-04-09T12:50:28.419Z,2.10
2023-04-09T12:52:55.676Z,1.80
2023-04-09T12:55:23.094Z,1.30
2023-04-09T12:57:51.348Z,1.50
2023-04-09T13:00:18.804Z,1.80
2023-04-09T13:02:46.526Z,1.60
2023-04-09T13:05:13.954Z,1.80
2023-04-09T13:07:43.110Z,2.40
2023-04-09T13:10:11.345Z,2.00
2023-04-09T13:12:38.653Z,1.87
2023-04-09T13:15:06.808Z,1.67
2023-04-09T13:17:34.415Z,2.00
2023-04-09T13:20:01.953Z,1.20
2023-04-09T13:22:29.261Z,1.30
2023-04-09T13:24:56.608Z,1.23
2023-04-09T13:27:24.050Z,1.40
2023-04-09T13:29:51.340Z,1.50
2023-04-09T13:32:21.070Z,1.60
2023-04-09T13:34:48.546Z,1.30
2023-04-09T13:37:16.139Z,1.23
2023-04-09T13:39:44.820Z,1.50
2023-04-09T13:42:14.005Z,1.60
2023-04-09T13:44:44.895Z,1.40
2023-04-09T13:47:13.316Z,1.30
2023-04-09T13:49:41.357Z,1.70
2023-04-09T13:52:09.148Z,1.47
2023-04-09T13:54:36.916Z,1.60
2023-04-09T13:57:04.328Z,1.60
2023-04-09T13:59:31.608Z,1.20
2023-04-09T14:01:58.860Z,1.37
2023-04-09T14:04:26.290Z,1.20
2023-04-09T14:06:53.675Z,1.73
2023-04-09T14:09:21.214Z,1.50
2023-04-09T14:11:49.444Z,2.23
2023-04-09T14:14:18.103Z,1.80
2023-04-09T14:16:45.432Z,1.60
2023-04-09T14:19:12.721Z,2.60
2023-04-09T14:21:40.510Z,1.70
2023-04-09T14:24:07.882Z,1.83
2023-04-09T14:26:35.174Z,1.40
2023-04-09T14:29:02.505Z,1.70
2023-04-09T14:31:29.982Z,1.60
2023-04-09T14:33:57.189Z,2.00
2023-04-09T14:36:24.930Z,1.53
2023-04-09T14:38:53.281Z,1.60
2023-04-09T14:41:21.960Z,1.80
2023-04-09T14:43:49.374Z,1.40
2023-04-09T14:46:16.691Z,1.27
2023-04-09T14:48:44.073Z,1.50
2023-04-09T14:51:11.718Z,1.20
2023-04-09T14:53:39.054Z,1.60
2023-04-09T14:56:06.744Z,1.27
2023-04-09T14:58:34.101Z,1.20
2023-04-09T15:01:01.328Z,1.37
2023-04-09T15:03:28.793Z,1.30
2023-04-09T15:05:56.798Z,1.40
2023-04-09T15:08:24.117Z,1.30
2023-04-09T15:10:51.386Z,1.33
2023-04-09T15:13:18.646Z,1.60
2023-04-09T15:15:45.860Z,1.20
2023-04-09T15:18:13.099Z,2.40
2023-04-09T15:20:41.681Z,2.70
2023-04-09T15:23:09.749Z,2.30
2023-04-09T15:25:37.084Z,2.97
2023-04-09T15:28:04.660Z,3.00
2023-04-09T15:30:32.531Z,3.37
2023-04-09T15:32:59.946Z,2.53
2023-04-09T15:35:29.410Z,2.40
2023-04-09T15:37:57.422Z,2.70
2023-04-09T15:40:25.012Z,3.13
2023-04-09T15:42:52.341Z,3.23
2023-04-09T15:45:19.706Z,2.20
2023-04-09T15:47:47.333Z,2.23
2023-04-09T15:50:14.946Z,2.50
2023-04-09T15:52:42.430Z,2.57
2023-04-09T15:55:10.125Z,2.57
2023-04-09T15:57:38.631Z,1.90
2023-04-09T16:00:10.671Z,2.10
2023-04-09T16:02:38.930Z,1.93
2023-04-09T16:05:07.247Z,2.30
2023-04-09T16:07:34.868Z,2.30
2023-04-09T16:10:02.556Z,2.33
2023-04-09T16:12:29.838Z,2.50
2023-04-09T16:14:57.061Z,2.30
2023-04-09T16:17:24.841Z,2.17
2023-04-09T16:19:52.052Z,2.07
2023-04-09T16:22:19.285Z,1.77
2023-04-09T16:24:46.626Z,2.40
2023-04-09T16:27:14.524Z,2.50
2023-04-09T16:29:42.188Z,2.73
2023-04-09T16:32:09.519Z,2.00
2023-04-09T16:34:36.808Z,2.07
2023-04-09T16:37:04.103Z,2.13
2023-04-09T16:39:31.662Z,2.40
2023-04-09T16:41:58.977Z,2.60
2023-04-09T16:44:26.286Z,2.40
2023-04-09T16:46:53.477Z,2.90
2023-04-09T16:49:20.900Z,2.50
2023-04-09T16:51:48.218Z,2.60
2023-04-09T16:54:15.401Z,2.20
2023-04-09T16:56:42.640Z,1.80
2023-04-09T16:59:09.916Z,1.97
2023-04-09T17:01:37.430Z,2.37
2023-04-09T17:04:04.927Z,1.73
2023-04-09T17:06:32.202Z,2.37
2023-04-09T17:08:59.483Z,2.50
2023-04-09T17:11:26.699Z,2.17
2023-04-09T17:13:54.103Z,2.20
2023-04-09T17:16:21.373Z,2.10
2023-04-09T17:18:48.631Z,1.80
2023-04-09T17:21:16.078Z,1.90
2023-04-09T17:23:44.269Z,2.77
2023-04-09T17:26:11.478Z,2.20
2023-04-09T17:28:38.844Z,2.03
2023-04-09T17:31:13.650Z,1.90
2023-04-09T17:33:41.171Z,2.70
2023-04-09T17:36:08.593Z,1.93
2023-04-09T17:38:35.885Z,2.17
2023-04-09T17:41:03.755Z,2.40
2023-04-09T17:43:32.085Z,2.00
2023-04-09T17:46:00.351Z,2.80
2023-04-09T17:48:29.552Z,2.43
2023-04-09T17:50:58.251Z,2.47
2023-04-09T17:53:25.529Z,2.13
2023-04-09T17:55:52.975Z,2.40
2023-04-09T17:58:20.576Z,2.27
2023-04-09T18:00:47.855Z,2.10
2023-04-09T18:03:15.712Z,2.47
2023-04-09T18:05:43.355Z,2.70
2023-04-09T18:08:10.789Z,2.10
2023-04-09T18:10:38.148Z,2.37
2023-04-09T18:13:05.652Z,2.43
2023-04-09T18:15:33.091Z,2.47
2023-04-09T18:18:00.718Z,2.93
2023-04-09T18:20:29.420Z,3.80
2023-04-09T18:22:58.105Z,3.90
2023-04-09T18:25:25.634Z,4.70
2023-04-09T18:27:53.161Z,3.50
2023-04-09T18:30:20.484Z,4.03
2023-04-09T18:32:48.410Z,3.77
2023-04-09T18:35:17.440Z,3.60
2023-04-09T18:37:45.462Z,4.27
2023-04-09T18:40:13.927Z,3.63
2023-04-09T18:42:42.538Z,4.20
2023-04-09T18:45:11.050Z,4.20
2023-04-09T18:47:38.550Z,4.60
2023-04-09T18:50:08.058Z,6.30
2023-04-09T18:52:38.919Z,8.40
2023-04-09T18:55:06.733Z,7.67
2023-04-09T18:57:34.027Z,8.50
2023-04-09T19:00:04.049Z,7.90
2023-04-09T19:02:31.503Z,7.47
2023-04-09T19:04:59.227Z,6.30
2023-04-09T19:07:26.533Z,8.47
2023-04-09T19:09:53.761Z,7.10
2023-04-09T19:12:21.337Z,7.17
2023-04-09T19:14:48.631Z,6.20
2023-04-09T19:17:16.528Z,5.10
2023-04-09T19:19:43.953Z,5.00
2023-04-09T19:22:11.789Z,4.20
2023-04-09T19:24:39.112Z,5.30
2023-04-09T19:27:10.065Z,3.77
2023-04-09T19:29:37.973Z,5.10
2023-04-09T19:32:06.080Z,5.07
2023-04-09T19:34:33.534Z,5.40
2023-04-09T19:37:00.950Z,5.30
2023-04-09T19:39:28.593Z,5.57
2023-04-09T19:41:55.848Z,4.30
2023-04-09T19:44:23.593Z,4.60
2023-04-09T19:46:51.267Z,4.70
2023-04-09T19:49:19.392Z,5.43
2023-04-09T19:51:47.081Z,4.83
2023-04-09T19:54:16.824Z,4.50
2023-04-09T19:56:44.492Z,4.83
2023-04-09T19:59:15.860Z,5.33
2023-04-09T20:01:43.705Z,6.07
2023-04-09T20:04:11.604Z,6.40
2023-04-09T20:06:43.300Z,7.43
2023-04-09T20:09:12.712Z,8.00
2023-04-09T20:11:40.895Z,7.90
2023-04-09T20:14:10.486Z,8.40
2023-04-09T20:16:37.781Z,8.97
2023-04-09T20:19:05.886Z,9.67
2023-04-09T20:21:33.174Z,10.13
2023-04-09T20:24:02.690Z,10.47
2023-04-09T20:26:31.049Z,11.50
2023-04-09T20:28:59.150Z,10.73
2023-04-09T20:31:27.548Z,10.73
2023-04-09T20:33:55.020Z,10.23
2023-04-09T20:36:22.250Z,10.37
2023-04-09T20:38:49.456Z,10.43
2023-04-09T20:41:16.664Z,8.40
2023-04-09T20:43:43.849Z,9.03
2023-04-09T20:46:11.920Z,9.47
2023-04-09T20:48:39.345Z,7.90
2023-04-09T20:51:13.716Z,6.90
2023-04-09T20:53:41.051Z,6.67
2023-04-09T20:56:09.289Z,7.30
2023-04-09T20:58:36.851Z,8.30
2023-04-09T21:01:06.657Z,8.20
2023-04-09T21:03:35.929Z,9.10
2023-04-09T21:06:03.573Z,8.40
2023-04-09T21:08:30.945Z,8.40
2023-04-09T21:10:58.221Z,8.23
2023-04-09T21:13:26.781Z,8.70
2023-04-09T21:15:54.237Z,8.30
2023-04-09T21:18:21.682Z,8.00
2023-04-09T21:20:49.874Z,5.37
2023-04-09T21:23:17.078Z,5.30
2023-04-09T21:25:44.291Z,4.13
2023-04-09T21:28:11.714Z,5.00
2023-04-09T21:30:39.057Z,4.80
2023-04-09T21:33:07.911Z,4.07
2023-04-09T21:35:36.592Z,2.73
2023-04-09T21:38:04.057Z,3.30
2023-04-09T21:40:31.782Z,2.00
2023-04-09T21:42:59.109Z,2.03
2023-04-09T21:45:26.371Z,2.37
2023-04-09T21:47:53.658Z,3.30
2023-04-09T21:50:20.948Z,7.17
2023-04-09T21:52:48.194Z,6.27
2023-04-09T21:55:15.434Z,7.00
2023-04-09T21:57:42.632Z,7.60
2023-04-09T22:00:11.116Z,7.20
2023-04-09T22:02:39.359Z,7.33
2023-04-09T22:05:06.979Z,7.23
2023-04-09T22:07:35.963Z,7.60
2023-04-09T22:10:03.298Z,6.93
2023-04-09T22:12:30.508Z,7.80
2023-04-09T22:14:57.704Z,7.87
2023-04-09T22:17:24.936Z,7.80
2023-04-09T22:19:52.226Z,6.67
2023-04-09T22:22:19.456Z,7.10
2023-04-09T22:24:46.636Z,6.40
2023-04-09T22:27:13.944Z,6.40
2023-04-09T22:29:41.476Z,3.97
2023-04-09T22:32:09.650Z,5.57
2023-04-09T22:34:37.186Z,4.30
2023-04-09T22:37:04.445Z,2.17
2023-04-09T22:39:31.954Z,2.60
2023-04-09T22:41:59.139Z,2.80
2023-04-09T22:44:26.419Z,2.07
2023-04-09T22:46:53.727Z,2.50
2023-04-09T22:49:21.553Z,2.60
2023-04-09T22:51:48.730Z,2.53
2023-04-09T22:54:16.101Z,4.67
2023-04-09T22:56:44.750Z,7.43
2023-04-09T22:59:12.424Z,6.90
2023-04-09T23:01:40.731Z,7.70
2023-04-09T23:04:07.998Z,7.20
2023-04-09T23:06:35.994Z,4.53
2023-04-09T23:09:03.351Z,4.93
2023-04-09T23:11:30.686Z,5.33
2023-04-09T23:13:57.897Z,5.70
2023-04-09T23:16:25.211Z,5.90
2023-04-09T23:18:52.686Z,5.43
2023-04-09T23:21:20.068Z,6.33
2023-04-09T23:23:47.263Z,6.17
2023-04-09T23:26:14.472Z,6.87
2023-04-09T23:28:41.760Z,7.30
2023-04-09T23:31:08.980Z,6.70
2023-04-09T23:33:36.239Z,5.30
2023-04-09T23:36:03.506Z,6.37
2023-04-09T23:38:30.866Z,5.70
2023-04-09T23:40:58.308Z,4.97
2023-04-09T23:43:25.655Z,5.30
2023-04-09T23:45:52.914Z,5.00
2023-04-09T23:48:20.069Z,4.43
2023-04-09T23:50:47.843Z,3.90
2023-04-09T23:53:15.048Z,3.50
2023-04-09T23:55:42.604Z,3.97
2023-04-09T23:58:09.946Z,4.30
